createdAt,value
2017-08-19T00:00:26.482Z,15.10
2017-08-19T00:02:54.061Z,15.10
2017-08-19T00:05:21.582Z,15.10
2017-08-19T00:07:49.121Z,14.90
2017-08-19T00:10:16.681Z,14.90
2017-08-19T00:12:44.217Z,14.90
2017-08-19T00:15:12.525Z,14.90
2017-08-19T00:17:40.075Z,14.90
2017-08-19T00:20:07.616Z,15.00
2017-08-19T00:22:35.917Z,15.00
2017-08-19T00:25:03.475Z,14.90
2017-08-19T00:27:31.011Z,15.00
2017-08-19T00:29:59.326Z,15.10
2017-08-19T00:32:26.873Z,15.00
2017-08-19T00:34:54.432Z,15.00
2017-08-19T00:37:21.977Z,15.00
2017-08-19T00:39:50.297Z,14.90
2017-08-19T00:42:17.839Z,14.90
2017-08-19T00:44:45.376Z,14.90
2017-08-19T00:47:12.914Z,14.80
2017-08-19T00:49:40.462Z,14.90
2017-08-19T00:52:08.005Z,14.80
2017-08-19T00:54:35.553Z,14.80
2017-08-19T00:57:03.083Z,14.80
2017-08-19T00:59:30.644Z,14.80
2017-08-19T01:01:58.177Z,14.70
2017-08-19T01:04:26.473Z,14.60
2017-08-19T01:06:54.017Z,14.60
2017-08-19T01:09:22.325Z,14.60
2017-08-19T01:11:50.400Z,14.60
2017-08-19T01:14:17.933Z,14.50
2017-08-19T01:16:46.229Z,14.50
2017-08-19T01:19:13.777Z,14.50
2017-08-19T01:21:41.318Z,14.60
2017-08-19T01:24:09.645Z,14.50
2017-08-19T01:26:49.088Z,14.50
2017-08-19T01:29:16.644Z,14.50
2017-08-19T01:31:44.182Z,14.50
2017-08-19T01:34:11.752Z,14.50
2017-08-19T01:36:39.298Z,14.40
2017-08-19T01:39:06.840Z,14.40
2017-08-19T01:41:35.157Z,14.40
2017-08-19T01:44:02.689Z,14.40
2017-08-19T01:46:31.010Z,14.40
2017-08-19T01:48:58.561Z,14.40
2017-08-19T01:51:26.112Z,14.50
2017-08-19T01:53:53.669Z,14.50
2017-08-19T01:56:21.206Z,14.50
2017-08-19T01:58:48.765Z,14.50
2017-08-19T02:01:16.323Z,14.50
2017-08-19T02:03:43.845Z,14.50
2017-08-19T02:06:11.393Z,14.50
2017-08-19T02:08:38.962Z,14.50
2017-08-19T02:11:06.517Z,14.40
2017-08-19T02:13:34.055Z,14.30
2017-08-19T02:16:01.595Z,14.30
2017-08-19T02:18:29.152Z,14.30
2017-08-19T02:20:56.687Z,14.30
2017-08-19T02:23:25.118Z,14.20
2017-08-19T02:25:52.649Z,14.20
2017-08-19T02:28:20.218Z,14.10
2017-08-19T02:30:47.777Z,14.00
2017-08-19T02:33:15.318Z,14.00
2017-08-19T02:35:42.869Z,14.00
2017-08-19T02:38:10.410Z,14.10
2017-08-19T02:40:37.965Z,14.10
2017-08-19T02:43:05.513Z,14.30
2017-08-19T02:45:33.073Z,14.30
2017-08-19T02:48:00.641Z,14.20
2017-08-19T02:50:28.194Z,13.90
2017-08-19T02:52:55.745Z,13.80
2017-08-19T02:55:23.295Z,13.70
2017-08-19T02:57:50.849Z,13.60
2017-08-19T03:00:18.373Z,13.70
2017-08-19T03:02:45.944Z,13.90
2017-08-19T03:05:13.482Z,14.00
2017-08-19T03:07:41.782Z,13.80
2017-08-19T03:10:09.334Z,13.80
2017-08-19T03:12:36.885Z,13.80
2017-08-19T03:15:05.194Z,13.80
2017-08-19T03:17:32.740Z,13.80
2017-08-19T03:20:00.310Z,14.00
2017-08-19T03:22:27.888Z,14.20
2017-08-19T03:24:55.458Z,14.30
2017-08-19T03:27:23.027Z,14.30
2017-08-19T03:29:50.581Z,14.30
2017-08-19T03:32:18.133Z,14.30
2017-08-19T03:34:45.682Z,14.20
2017-08-19T03:37:13.245Z,14.30
2017-08-19T03:39:40.787Z,14.20
2017-08-19T03:42:08.325Z,14.10
2017-08-19T03:44:36.644Z,13.80
2017-08-19T03:47:04.188Z,13.80
2017-08-19T03:49:31.749Z,13.80
2017-08-19T03:51:59.309Z,13.80
2017-08-19T03:54:26.846Z,13.80
2017-08-19T03:56:54.411Z,13.70
2017-08-19T03:59:21.962Z,13.80
2017-08-19T04:01:50.256Z,13.80
2017-08-19T04:04:17.813Z,13.80
2017-08-19T04:06:45.358Z,13.80
2017-08-19T04:09:12.917Z,13.80
2017-08-19T04:11:41.246Z,13.70
2017-08-19T04:14:08.781Z,13.70
2017-08-19T04:16:36.344Z,13.80
2017-08-19T04:19:03.876Z,13.70
2017-08-19T04:21:32.202Z,13.40
2017-08-19T04:23:59.737Z,13.40
2017-08-19T04:26:27.269Z,13.40
2017-08-19T04:28:55.588Z,13.40
2017-08-19T04:31:23.126Z,13.30
2017-08-19T04:33:50.673Z,13.30
2017-08-19T04:36:18.209Z,13.30
2017-08-19T04:38:45.763Z,13.30
2017-08-19T04:41:13.285Z,13.30
2017-08-19T04:43:40.828Z,13.20
2017-08-19T04:46:08.377Z,13.20
2017-08-19T04:48:35.912Z,13.30
2017-08-19T04:51:04.274Z,13.20
2017-08-19T04:53:31.816Z,13.20
2017-08-19T04:55:59.341Z,13.20
2017-08-19T04:58:26.897Z,13.00
2017-08-19T05:00:54.495Z,13.00
2017-08-19T05:03:22.049Z,13.00
2017-08-19T05:05:49.587Z,12.90
2017-08-19T05:08:17.151Z,13.10
2017-08-19T05:10:44.687Z,13.20
2017-08-19T05:13:12.225Z,13.30
2017-08-19T05:15:40.548Z,13.20
2017-08-19T05:18:08.080Z,13.20
2017-08-19T05:20:36.406Z,13.20
2017-08-19T05:23:03.937Z,13.10
2017-08-19T05:25:31.469Z,13.10
2017-08-19T05:27:59.793Z,13.20
2017-08-19T05:30:27.353Z,13.10
2017-08-19T05:32:54.908Z,13.20
2017-08-19T05:35:22.449Z,13.50
2017-08-19T05:37:50.023Z,13.40
2017-08-19T05:40:17.576Z,13.60
2017-08-19T05:42:45.135Z,13.60
2017-08-19T05:45:12.662Z,13.90
2017-08-19T05:47:40.971Z,13.90
2017-08-19T05:50:08.525Z,13.80
2017-08-19T05:52:36.064Z,13.80
2017-08-19T05:55:04.382Z,13.60
2017-08-19T05:57:31.913Z,13.50
2017-08-19T05:59:59.497Z,13.50
2017-08-19T06:02:27.044Z,13.60
2017-08-19T06:04:54.601Z,13.60
2017-08-19T06:07:22.163Z,13.60
2017-08-19T06:09:49.705Z,13.70
2017-08-19T06:12:17.264Z,13.70
2017-08-19T06:14:44.811Z,13.80
2017-08-19T06:17:13.119Z,13.90
2017-08-19T06:19:40.692Z,13.90
2017-08-19T06:22:08.228Z,13.90
2017-08-19T06:24:35.763Z,13.80
2017-08-19T06:27:04.119Z,13.70
2017-08-19T06:29:31.658Z,13.70
2017-08-19T06:31:59.241Z,13.70
2017-08-19T06:34:26.793Z,13.80
2017-08-19T06:36:54.326Z,13.80
2017-08-19T06:39:21.875Z,13.90
2017-08-19T06:41:49.417Z,13.90
2017-08-19T06:44:17.726Z,14.20
2017-08-19T06:46:45.282Z,14.20
2017-08-19T06:49:12.830Z,14.20
2017-08-19T06:51:40.386Z,14.10
2017-08-19T06:54:07.939Z,14.30
2017-08-19T06:56:35.474Z,14.10
2017-08-19T06:59:03.016Z,15.20
2017-08-19T07:01:30.574Z,16.80
2017-08-19T07:03:58.121Z,18.40
2017-08-19T07:06:25.667Z,18.80
2017-08-19T07:08:53.194Z,18.70
2017-08-19T07:11:20.745Z,18.70
2017-08-19T07:13:49.049Z,17.80
2017-08-19T07:16:16.605Z,17.80
2017-08-19T07:18:44.173Z,17.30
2017-08-19T07:21:11.704Z,16.70
2017-08-19T07:23:40.021Z,16.40
2017-08-19T07:26:07.565Z,16.40
2017-08-19T07:28:35.108Z,15.60
2017-08-19T07:31:02.695Z,15.40
2017-08-19T07:33:30.233Z,15.30
2017-08-19T07:35:57.796Z,15.30
2017-08-19T07:38:25.341Z,15.20
2017-08-19T07:40:52.893Z,15.10
2017-08-19T07:43:21.202Z,15.00
2017-08-19T07:45:48.800Z,15.00
2017-08-19T07:48:16.354Z,15.10
2017-08-19T07:50:43.880Z,15.10
2017-08-19T07:53:11.405Z,15.10
2017-08-19T07:55:39.717Z,15.40
2017-08-19T07:58:07.253Z,15.40
2017-08-19T08:00:35.569Z,15.20
2017-08-19T08:03:03.121Z,15.20
2017-08-19T08:05:30.690Z,15.20
2017-08-19T08:07:58.220Z,15.20
2017-08-19T08:10:25.756Z,15.20
2017-08-19T08:12:53.318Z,15.30
2017-08-19T08:15:21.608Z,15.40
2017-08-19T08:17:49.937Z,15.60
2017-08-19T08:20:17.462Z,15.60
2017-08-19T08:22:45.009Z,16.50
2017-08-19T08:25:12.551Z,16.80
2017-08-19T08:27:40.845Z,17.60
2017-08-19T08:30:09.177Z,17.20
2017-08-19T08:32:36.716Z,17.20
2017-08-19T08:35:04.281Z,17.00
2017-08-19T08:37:31.805Z,17.80
2017-08-19T08:39:59.362Z,18.80
2017-08-19T08:42:26.916Z,20.70
2017-08-19T08:44:54.467Z,21.00
2017-08-19T08:47:22.787Z,21.10
2017-08-19T08:49:50.317Z,21.10
2017-08-19T08:52:17.841Z,21.90
2017-08-19T08:54:45.384Z,22.90
2017-08-19T08:57:12.908Z,22.90
2017-08-19T08:59:40.456Z,23.50
2017-08-19T09:02:07.999Z,23.70
2017-08-19T09:04:36.286Z,23.60
2017-08-19T09:07:03.835Z,23.60
2017-08-19T09:09:31.414Z,23.50
2017-08-19T09:11:58.948Z,22.40
2017-08-19T09:14:26.492Z,23.80
2017-08-19T09:16:54.042Z,23.70
2017-08-19T09:19:21.607Z,23.80
2017-08-19T09:21:49.248Z,26.10
2017-08-19T09:24:16.773Z,25.30
2017-08-19T09:26:44.333Z,25.10
2017-08-19T09:29:11.865Z,25.20
2017-08-19T09:31:39.433Z,27.20
2017-08-19T09:34:07.734Z,23.80
2017-08-19T09:36:35.273Z,23.70
2017-08-19T09:39:03.587Z,22.40
2017-08-19T09:41:31.125Z,22.40
2017-08-19T09:43:58.671Z,21.70
2017-08-19T09:46:26.966Z,20.50
2017-08-19T09:48:54.536Z,20.50
2017-08-19T09:51:22.070Z,20.60
2017-08-19T09:53:49.601Z,20.60
2017-08-19T09:56:17.159Z,20.00
2017-08-19T09:58:44.705Z,19.60
2017-08-19T10:01:12.266Z,19.40
2017-08-19T10:03:39.802Z,19.00
2017-08-19T10:06:08.195Z,19.10
2017-08-19T10:08:45.301Z,19.40
2017-08-19T10:11:22.586Z,19.60
2017-08-19T10:13:50.137Z,19.30
2017-08-19T10:16:17.676Z,19.20
2017-08-19T10:18:45.200Z,19.30
2017-08-19T10:21:12.751Z,19.30
2017-08-19T10:23:41.045Z,19.20
2017-08-19T10:26:08.627Z,19.20
2017-08-19T10:28:36.165Z,19.30
2017-08-19T10:31:03.721Z,19.20
2017-08-19T10:33:31.310Z,21.50
2017-08-19T10:35:58.873Z,24.40
2017-08-19T10:38:26.424Z,26.50
2017-08-19T10:40:53.945Z,27.70
2017-08-19T10:43:22.268Z,29.20
2017-08-19T10:45:49.826Z,29.20
2017-08-19T10:48:17.372Z,30.90
2017-08-19T10:50:44.893Z,30.40
2017-08-19T10:53:12.421Z,29.60
2017-08-19T10:55:39.985Z,26.70
2017-08-19T10:58:07.521Z,27.10
2017-08-19T11:00:35.087Z,27.00
2017-08-19T11:03:02.615Z,26.30
2017-08-19T11:05:30.152Z,26.00
2017-08-19T11:07:57.707Z,24.60
2017-08-19T11:10:25.267Z,23.30
2017-08-19T11:12:52.804Z,22.90
2017-08-19T11:15:20.351Z,23.60
2017-08-19T11:17:47.903Z,23.40
2017-08-19T11:20:15.441Z,22.40
2017-08-19T11:22:42.991Z,21.80
2017-08-19T11:25:10.529Z,21.20
2017-08-19T11:27:38.127Z,21.20
2017-08-19T11:30:05.661Z,21.90
2017-08-19T11:32:33.980Z,23.60
2017-08-19T11:35:01.519Z,23.60
2017-08-19T11:37:29.060Z,24.00
2017-08-19T11:39:57.351Z,23.20
2017-08-19T11:42:24.889Z,23.20
2017-08-19T11:44:53.206Z,24.00
2017-08-19T11:47:20.747Z,23.90
2017-08-19T11:49:48.298Z,24.30
2017-08-19T11:52:16.606Z,23.90
2017-08-19T11:54:44.171Z,23.90
2017-08-19T11:57:11.698Z,24.00
2017-08-19T11:59:39.993Z,23.50
2017-08-19T12:02:07.548Z,23.50
2017-08-19T12:04:35.069Z,23.00
2017-08-19T12:07:02.636Z,22.10
2017-08-19T12:09:30.944Z,21.90
2017-08-19T12:11:58.476Z,21.90
2017-08-19T12:14:26.784Z,22.60
2017-08-19T12:16:54.310Z,22.60
2017-08-19T12:19:22.641Z,23.70
2017-08-19T12:21:50.177Z,23.60
2017-08-19T12:24:17.702Z,23.90
2017-08-19T12:26:45.225Z,24.10
2017-08-19T12:29:12.772Z,24.20
2017-08-19T12:31:40.317Z,24.30
2017-08-19T12:34:07.865Z,24.00
2017-08-19T12:36:35.451Z,24.10
2017-08-19T12:39:02.998Z,24.30
2017-08-19T12:41:30.572Z,24.30
2017-08-19T12:43:58.708Z,23.90
2017-08-19T12:46:27.024Z,23.30
2017-08-19T12:48:54.552Z,23.30
2017-08-19T12:51:22.106Z,23.60
2017-08-19T12:53:50.403Z,24.00
2017-08-19T12:56:18.025Z,24.00
2017-08-19T12:58:45.569Z,24.30
2017-08-19T13:01:13.095Z,24.10
2017-08-19T13:03:40.664Z,23.60
2017-08-19T13:06:08.190Z,23.80
2017-08-19T13:08:35.739Z,24.00
2017-08-19T13:11:03.301Z,24.20
2017-08-19T13:13:31.621Z,23.40
2017-08-19T13:15:59.179Z,23.40
2017-08-19T13:18:26.708Z,23.30
2017-08-19T13:20:54.302Z,23.80
2017-08-19T13:23:21.828Z,24.20
2017-08-19T13:25:49.382Z,24.20
2017-08-19T13:28:16.913Z,24.30
2017-08-19T13:30:44.485Z,23.90
2017-08-19T13:33:12.798Z,22.90
2017-08-19T13:35:40.349Z,22.90
2017-08-19T13:38:07.906Z,22.90
2017-08-19T13:40:35.444Z,22.50
2017-08-19T13:43:03.757Z,22.20
2017-08-19T13:45:31.302Z,22.10
2017-08-19T13:47:58.827Z,22.00
2017-08-19T13:50:26.368Z,22.00
2017-08-19T13:52:53.938Z,21.90
2017-08-19T13:55:21.473Z,21.70
2017-08-19T13:57:49.015Z,21.50
2017-08-19T14:00:16.567Z,21.50
2017-08-19T14:02:44.117Z,21.40
2017-08-19T14:05:11.656Z,21.00
2017-08-19T14:07:39.981Z,20.90
2017-08-19T14:10:07.540Z,20.80
2017-08-19T14:12:35.075Z,20.60
2017-08-19T14:15:02.604Z,20.60
2017-08-19T14:17:30.927Z,20.40
2017-08-19T14:19:58.465Z,20.30
2017-08-19T14:22:26.790Z,20.80
2017-08-19T14:24:54.333Z,20.80
2017-08-19T14:27:21.864Z,20.80
2017-08-19T14:29:49.401Z,20.90
2017-08-19T14:32:16.926Z,20.90
2017-08-19T14:34:44.493Z,20.80
2017-08-19T14:37:12.034Z,20.80
2017-08-19T14:39:39.561Z,21.00
2017-08-19T14:42:07.121Z,21.00
2017-08-19T14:44:34.673Z,20.90
2017-08-19T14:47:02.986Z,21.10
2017-08-19T14:49:30.540Z,21.10
2017-08-19T14:51:58.077Z,21.00
2017-08-19T14:54:25.628Z,21.10
2017-08-19T14:56:53.921Z,21.10
2017-08-19T14:59:21.480Z,21.10
2017-08-19T15:01:49.028Z,21.30
2017-08-19T15:04:16.557Z,21.60
2017-08-19T15:06:44.124Z,21.60
2017-08-19T15:09:11.670Z,21.50
2017-08-19T15:11:39.228Z,21.50
2017-08-19T15:14:07.075Z,21.50
2017-08-19T15:16:34.627Z,21.60
2017-08-19T15:19:02.171Z,21.50
2017-08-19T15:21:29.733Z,21.60
2017-08-19T15:23:57.266Z,21.60
2017-08-19T15:26:25.577Z,21.50
2017-08-19T15:28:53.269Z,21.50
2017-08-19T15:31:20.820Z,21.40
2017-08-19T15:33:48.368Z,20.90
2017-08-19T15:36:16.209Z,21.00
2017-08-19T15:38:43.744Z,21.10
2017-08-19T15:41:12.059Z,21.00
2017-08-19T15:43:39.588Z,21.00
2017-08-19T15:46:07.903Z,21.00
2017-08-19T15:48:35.448Z,21.10
2017-08-19T15:51:02.972Z,21.10
2017-08-19T15:53:31.293Z,21.30
2017-08-19T15:55:58.853Z,21.30
2017-08-19T15:58:26.381Z,21.40
2017-08-19T16:00:54.701Z,21.40
2017-08-19T16:03:22.254Z,21.40
2017-08-19T16:05:49.800Z,21.60
2017-08-19T16:08:17.328Z,21.40
2017-08-19T16:10:45.039Z,21.40
2017-08-19T16:13:12.601Z,21.30
2017-08-19T16:15:40.130Z,21.30
2017-08-19T16:18:07.680Z,21.20
2017-08-19T16:20:35.976Z,21.00
2017-08-19T16:23:03.529Z,21.00
2017-08-19T16:25:31.064Z,21.00
2017-08-19T16:27:59.420Z,20.70
2017-08-19T16:30:26.946Z,20.70
2017-08-19T16:32:54.480Z,20.40
2017-08-19T16:35:22.039Z,20.40
2017-08-19T16:37:49.574Z,20.50
2017-08-19T16:40:17.133Z,20.60
2017-08-19T16:42:44.678Z,20.60
2017-08-19T16:45:12.233Z,20.60
2017-08-19T16:47:39.782Z,20.40
2017-08-19T16:50:07.313Z,20.20
2017-08-19T16:52:34.869Z,20.20
2017-08-19T16:55:02.429Z,20.10
2017-08-19T16:57:29.964Z,19.90
2017-08-19T16:59:58.293Z,19.70
2017-08-19T17:02:25.834Z,19.70
2017-08-19T17:04:53.408Z,19.60
2017-08-19T17:07:20.988Z,19.60
2017-08-19T17:09:48.528Z,19.60
2017-08-19T17:12:16.090Z,19.60
2017-08-19T17:14:43.648Z,19.50
2017-08-19T17:17:11.206Z,19.30
2017-08-19T17:19:39.205Z,19.20
2017-08-19T17:22:06.756Z,19.10
2017-08-19T17:24:34.293Z,19.00
2017-08-19T17:27:01.825Z,19.00
2017-08-19T17:29:29.417Z,18.90
2017-08-19T17:31:56.949Z,18.90
2017-08-19T17:34:24.502Z,18.90
2017-08-19T17:36:52.058Z,18.80
2017-08-19T17:39:20.353Z,18.40
2017-08-19T17:41:47.918Z,18.40
2017-08-19T17:44:15.455Z,18.40
2017-08-19T17:46:43.786Z,18.20
2017-08-19T17:49:11.333Z,18.20
2017-08-19T17:51:38.889Z,18.10
2017-08-19T17:54:06.468Z,17.90
2017-08-19T17:56:33.997Z,17.90
2017-08-19T17:59:01.561Z,17.90
2017-08-19T18:01:29.093Z,17.80
2017-08-19T18:03:56.649Z,17.70
2017-08-19T18:06:24.940Z,17.60
2017-08-19T18:08:52.469Z,17.60
2017-08-19T18:11:20.021Z,17.50
2017-08-19T18:13:47.565Z,17.40
2017-08-19T18:16:15.113Z,17.40
2017-08-19T18:18:42.674Z,17.30
2017-08-19T18:21:10.209Z,17.20
2017-08-19T18:23:37.778Z,17.20
2017-08-19T18:26:05.306Z,17.10
2017-08-19T18:28:33.624Z,16.80
2017-08-19T18:31:01.162Z,16.80
2017-08-19T18:33:28.705Z,16.70
2017-08-19T18:35:56.283Z,16.70
2017-08-19T18:38:23.809Z,16.70
2017-08-19T18:40:51.364Z,16.70
2017-08-19T18:43:18.909Z,16.50
2017-08-19T18:45:46.452Z,16.50
2017-08-19T18:48:14.002Z,16.50
2017-08-19T18:50:41.557Z,16.40
2017-08-19T18:53:09.122Z,16.30
2017-08-19T18:55:36.660Z,16.30
2017-08-19T18:58:04.339Z,16.30
2017-08-19T19:00:31.869Z,16.10
2017-08-19T19:02:59.469Z,16.10
2017-08-19T19:05:27.020Z,16.10
2017-08-19T19:07:54.551Z,16.00
2017-08-19T19:10:22.119Z,16.00
2017-08-19T19:12:49.654Z,15.80
2017-08-19T19:15:17.997Z,15.60
2017-08-19T19:17:45.537Z,15.60
2017-08-19T19:20:13.105Z,15.50
2017-08-19T19:22:40.638Z,15.50
2017-08-19T19:25:08.169Z,15.40
2017-08-19T19:27:36.493Z,15.20
2017-08-19T19:30:04.158Z,15.20
2017-08-19T19:32:31.712Z,15.10
2017-08-19T19:34:59.265Z,15.20
2017-08-19T19:37:26.832Z,15.30
2017-08-19T19:39:54.381Z,15.30
2017-08-19T19:42:21.958Z,15.20
2017-08-19T19:44:49.562Z,15.20
2017-08-19T19:47:17.869Z,14.80
2017-08-19T19:49:45.424Z,14.70
2017-08-19T19:52:12.958Z,14.50
2017-08-19T19:54:41.273Z,14.40
2017-08-19T19:57:08.809Z,14.40
2017-08-19T19:59:36.381Z,14.30
2017-08-19T20:02:03.941Z,14.20
2017-08-19T20:04:31.488Z,14.10
2017-08-19T20:06:59.040Z,14.00
2017-08-19T20:09:27.347Z,13.90
2017-08-19T20:11:55.099Z,13.80
2017-08-19T20:14:22.647Z,13.90
2017-08-19T20:16:50.189Z,13.70
2017-08-19T20:19:18.502Z,13.60
2017-08-19T20:21:46.069Z,13.60
2017-08-19T20:24:13.622Z,13.60
2017-08-19T20:26:41.152Z,13.60
2017-08-19T20:29:09.506Z,13.50
2017-08-19T20:31:37.046Z,13.50
2017-08-19T20:34:04.596Z,13.40
2017-08-19T20:36:32.127Z,13.40
2017-08-19T20:38:59.819Z,13.30
2017-08-19T20:41:27.390Z,13.20
2017-08-19T20:43:54.934Z,13.20
2017-08-19T20:46:22.492Z,13.10
2017-08-19T20:48:50.052Z,13.10
2017-08-19T20:51:17.591Z,13.00
2017-08-19T20:53:45.170Z,13.00
2017-08-19T20:56:12.728Z,13.00
2017-08-19T20:58:40.277Z,13.00
2017-08-19T21:01:07.837Z,12.90
2017-08-19T21:03:35.374Z,12.80
2017-08-19T21:06:03.676Z,12.80
2017-08-19T21:08:31.237Z,12.80
2017-08-19T21:10:58.764Z,12.80
2017-08-19T21:13:27.073Z,12.60
2017-08-19T21:15:54.605Z,12.60
2017-08-19T21:18:22.911Z,12.50
2017-08-19T21:20:50.470Z,12.40
2017-08-19T21:23:18.025Z,12.40
2017-08-19T21:25:45.586Z,12.40
2017-08-19T21:28:13.116Z,12.30
2017-08-19T21:30:41.428Z,12.30
2017-08-19T21:33:08.986Z,12.30
2017-08-19T21:35:36.573Z,12.20
2017-08-19T21:38:04.101Z,12.20
2017-08-19T21:40:31.641Z,12.20
2017-08-19T21:42:59.971Z,12.20
2017-08-19T21:45:27.516Z,12.10
2017-08-19T21:47:55.085Z,12.10
2017-08-19T21:50:22.657Z,12.10
2017-08-19T21:52:50.316Z,12.10
2017-08-19T21:55:17.870Z,12.00
2017-08-19T21:57:45.397Z,12.00
2017-08-19T22:00:12.953Z,11.90
2017-08-19T22:02:40.491Z,11.90
2017-08-19T22:05:08.056Z,11.80
2017-08-19T22:07:35.621Z,11.80
2017-08-19T22:10:03.917Z,11.80
2017-08-19T22:12:31.468Z,11.80
2017-08-19T22:14:59.773Z,11.70
2017-08-19T22:17:27.330Z,11.70
2017-08-19T22:19:54.881Z,11.70
2017-08-19T22:22:22.415Z,11.80
2017-08-19T22:24:50.733Z,11.80
2017-08-19T22:27:18.261Z,11.80
2017-08-19T22:29:46.587Z,11.60
2017-08-19T22:32:14.123Z,11.60
2017-08-19T22:34:41.657Z,11.60
2017-08-19T22:37:09.991Z,11.70
2017-08-19T22:39:37.530Z,11.60
2017-08-19T22:42:05.076Z,11.60
2017-08-19T22:44:32.617Z,11.60
2017-08-19T22:47:00.901Z,11.50
2017-08-19T22:49:28.458Z,11.40
2017-08-19T22:51:55.995Z,11.40
2017-08-19T22:54:24.324Z,11.40
2017-08-19T22:56:51.865Z,11.40
2017-08-19T22:59:19.449Z,11.50
2017-08-19T23:01:46.978Z,11.40
2017-08-19T23:04:14.514Z,11.40
2017-08-19T23:06:42.094Z,11.40
2017-08-19T23:09:09.634Z,11.40
2017-08-19T23:11:37.944Z,11.50
2017-08-19T23:14:06.386Z,11.50
2017-08-19T23:16:33.918Z,11.60
2017-08-19T23:19:01.482Z,11.60
2017-08-19T23:21:29.033Z,11.60
2017-08-19T23:23:56.558Z,11.50
2017-08-19T23:26:24.090Z,11.50
2017-08-19T23:28:52.401Z,11.60
2017-08-19T23:31:19.932Z,11.60
2017-08-19T23:33:47.489Z,11.60
2017-08-19T23:36:15.080Z,11.70
2017-08-19T23:38:42.642Z,11.70
2017-08-19T23:41:10.185Z,11.70
2017-08-19T23:43:37.736Z,11.60
2017-08-19T23:46:06.057Z,11.60
2017-08-19T23:48:33.610Z,11.60
2017-08-19T23:51:01.137Z,11.60
2017-08-19T23:53:28.674Z,11.60
2017-08-19T23:55:56.224Z,11.50
2017-08-19T23:58:23.765Z,11.50
